createdAt,value
2023-01-20T00:00:17.191Z,100620.91
2023-01-20T00:02:43.818Z,100623.47
2023-01-20T00:05:10.544Z,100617.25
2023-01-20T00:07:37.169Z,100623.31
2023-01-20T00:10:04.010Z,100616.28
2023-01-20T00:12:32.003Z,100621.56
2023-01-20T00:14:58.600Z,100617.09
2023-01-20T00:17:25.238Z,100622.47
2023-01-20T00:19:51.817Z,100626.78
2023-01-20T00:22:18.404Z,100629.50
2023-01-20T00:24:44.996Z,100632.03
2023-01-20T00:27:11.624Z,100639.03
2023-01-20T00:29:38.248Z,100633.75
2023-01-20T00:32:04.928Z,100636.50
2023-01-20T00:34:31.478Z,100634.63
2023-01-20T00:36:58.058Z,100648.03
2023-01-20T00:39:24.612Z,100646.09
2023-01-20T00:41:51.178Z,100651.38
2023-01-20T00:44:17.777Z,100645.34
2023-01-20T00:46:44.521Z,100657.72
2023-01-20T00:49:11.227Z,100648.81
2023-01-20T00:51:37.818Z,100651.47
2023-01-20T00:54:04.683Z,100652.56
2023-01-20T00:56:31.286Z,100654.19
2023-01-20T00:58:57.917Z,100657.88
2023-01-20T01:01:24.525Z,100654.38
2023-01-20T01:03:54.178Z,100657.78
2023-01-20T01:06:21.198Z,100661.25
2023-01-20T01:08:47.784Z,100666.44
2023-01-20T01:11:14.412Z,100680.59
2023-01-20T01:13:41.393Z,100676.97
2023-01-20T01:16:15.639Z,100682.25
2023-01-20T01:18:42.885Z,100675.22
2023-01-20T01:21:11.455Z,100679.91
2023-01-20T01:23:38.068Z,100679.72
2023-01-20T01:26:04.939Z,100688.66
2023-01-20T01:28:32.020Z,100693.78
2023-01-20T01:31:03.049Z,100698.97
2023-01-20T01:33:30.413Z,100694.53
2023-01-20T01:36:01.934Z,100691.00
2023-01-20T01:38:29.041Z,100701.56
2023-01-20T01:40:56.066Z,100703.38
2023-01-20T01:43:26.037Z,100698.97
2023-01-20T01:45:52.714Z,100698.06
2023-01-20T01:48:23.598Z,100698.94
2023-01-20T01:51:08.467Z,100707.78
2023-01-20T01:53:40.587Z,100705.13
2023-01-20T01:56:07.463Z,100715.59
2023-01-20T01:58:36.323Z,100714.78
2023-01-20T02:01:03.657Z,100713.91
2023-01-20T02:03:38.456Z,100719.19
2023-01-20T02:06:05.268Z,100727.09
2023-01-20T02:08:32.074Z,100728.78
2023-01-20T02:10:58.645Z,100727.09
2023-01-20T02:13:25.285Z,100735.84
2023-01-20T02:16:02.286Z,100741.94
2023-01-20T02:18:39.153Z,100736.72
2023-01-20T02:21:15.967Z,100749.16
2023-01-20T02:24:12.320Z,100752.63
2023-01-20T02:26:57.592Z,100749.94
2023-01-20T02:29:42.739Z,100752.56
2023-01-20T02:32:13.902Z,100760.44
2023-01-20T02:34:54.792Z,100758.69
2023-01-20T02:37:37.833Z,100765.78
2023-01-20T02:40:14.466Z,100771.88
2023-01-20T02:42:45.355Z,100774.50
2023-01-20T02:45:18.232Z,100776.22
2023-01-20T02:47:56.773Z,100778.00
2023-01-20T02:50:27.557Z,100781.53
2023-01-20T02:52:56.804Z,100780.63
2023-01-20T02:55:32.189Z,100799.03
2023-01-20T02:58:04.688Z,100792.94
2023-01-20T03:00:35.434Z,100793.81
2023-01-20T03:03:03.050Z,100793.00
2023-01-20T03:05:31.980Z,100793.00
2023-01-20T03:07:59.544Z,100800.00
2023-01-20T03:10:27.502Z,100801.72
2023-01-20T03:12:57.107Z,100807.09
2023-01-20T03:15:30.471Z,100801.75
2023-01-20T03:17:57.900Z,100811.38
2023-01-20T03:20:24.740Z,100802.56
2023-01-20T03:22:51.326Z,100816.66
2023-01-20T03:25:19.135Z,100815.81
2023-01-20T03:27:45.723Z,100814.13
2023-01-20T03:30:13.827Z,100822.88
2023-01-20T03:32:42.938Z,100833.41
2023-01-20T03:35:09.624Z,100837.78
2023-01-20T03:37:36.272Z,100829.84
2023-01-20T03:40:03.005Z,100829.84
2023-01-20T03:42:31.857Z,100824.56
2023-01-20T03:45:08.934Z,100826.34
2023-01-20T03:48:00.244Z,100827.28
2023-01-20T03:50:37.622Z,100834.28
2023-01-20T03:53:19.035Z,100837.75
2023-01-20T03:55:50.376Z,100843.03
2023-01-20T03:58:20.753Z,100843.06
2023-01-20T04:00:49.209Z,100851.00
2023-01-20T04:03:19.609Z,100843.03
2023-01-20T04:05:46.866Z,100850.94
2023-01-20T04:08:14.897Z,100854.47
2023-01-20T04:10:43.608Z,100843.94
2023-01-20T04:13:10.225Z,100857.09
2023-01-20T04:15:40.756Z,100861.47
2023-01-20T04:18:12.533Z,100868.53
2023-01-20T04:20:39.267Z,100855.34
2023-01-20T04:23:06.628Z,100861.50
2023-01-20T04:25:33.681Z,100879.94
2023-01-20T04:28:00.238Z,100875.53
2023-01-20T04:30:26.889Z,100874.66
2023-01-20T04:32:53.575Z,100874.69
2023-01-20T04:35:20.432Z,100872.00
2023-01-20T04:37:47.010Z,100878.13
2023-01-20T04:40:13.755Z,100885.19
2023-01-20T04:42:40.307Z,100880.78
2023-01-20T04:45:07.202Z,100893.94
2023-01-20T04:47:34.156Z,100896.63
2023-01-20T04:50:00.714Z,100895.78
2023-01-20T04:52:27.280Z,100891.38
2023-01-20T04:54:53.845Z,100909.81
2023-01-20T04:57:20.861Z,100909.81
2023-01-20T04:59:47.426Z,100908.94
2023-01-20T05:02:14.038Z,100915.06
2023-01-20T05:04:40.665Z,100912.44
2023-01-20T05:07:07.214Z,100920.34
2023-01-20T05:09:33.819Z,100919.47
2023-01-20T05:12:00.430Z,100925.59
2023-01-20T05:14:26.969Z,100917.72
2023-01-20T05:16:53.559Z,100926.47
2023-01-20T05:19:20.099Z,100930.00
2023-01-20T05:21:46.675Z,100930.00
2023-01-20T05:24:13.272Z,100928.25
2023-01-20T05:26:39.833Z,100940.53
2023-01-20T05:29:06.405Z,100945.81
2023-01-20T05:31:33.013Z,100941.41
2023-01-20T05:33:59.642Z,100945.81
2023-01-20T05:36:28.308Z,100954.56
2023-01-20T05:38:55.043Z,100954.56
2023-01-20T05:41:21.948Z,100955.44
2023-01-20T05:43:48.547Z,100960.69
2023-01-20T05:46:15.785Z,100957.22
2023-01-20T05:48:42.426Z,100969.47
2023-01-20T05:51:08.986Z,100976.53
2023-01-20T05:53:35.573Z,100972.09
2023-01-20T05:56:04.729Z,100985.97
2023-01-20T05:58:31.946Z,100986.09
2023-01-20T06:01:06.593Z,100986.13
2023-01-20T06:03:33.235Z,100986.13
2023-01-20T06:06:04.703Z,100996.69
2023-01-20T06:08:31.294Z,101001.06
2023-01-20T06:10:58.628Z,100993.16
2023-01-20T06:13:25.421Z,100996.69
2023-01-20T06:15:56.049Z,100997.53
2023-01-20T06:18:23.929Z,101008.00
2023-01-20T06:20:50.557Z,101009.81
2023-01-20T06:23:17.620Z,101012.47
2023-01-20T06:25:44.210Z,101022.97
2023-01-20T06:28:11.127Z,101023.88
2023-01-20T06:30:38.270Z,101026.47
2023-01-20T06:33:10.583Z,101042.19
2023-01-20T06:35:37.737Z,101042.00
2023-01-20T06:38:04.458Z,101047.16
2023-01-20T06:40:31.271Z,101057.03
2023-01-20T06:42:58.448Z,101065.75
2023-01-20T06:45:25.029Z,101067.63
2023-01-20T06:47:51.629Z,101071.84
2023-01-20T06:50:18.184Z,101070.22
2023-01-20T06:52:44.744Z,101076.44
2023-01-20T06:55:11.319Z,101082.50
2023-01-20T06:57:37.972Z,101078.19
2023-01-20T07:00:05.048Z,101083.50
2023-01-20T07:02:31.729Z,101081.72
2023-01-20T07:05:00.011Z,101090.53
2023-01-20T07:07:27.083Z,101094.06
2023-01-20T07:09:56.629Z,101090.31
2023-01-20T07:12:23.213Z,101096.59
2023-01-20T07:14:49.810Z,101104.47
2023-01-20T07:17:16.537Z,101108.03
2023-01-20T07:19:43.113Z,101117.50
2023-01-20T07:22:09.744Z,101122.94
2023-01-20T07:24:36.387Z,101116.00
2023-01-20T07:27:02.957Z,101128.31
2023-01-20T07:29:32.004Z,101129.16
2023-01-20T07:31:58.608Z,101130.06
2023-01-20T07:34:25.313Z,101123.03
2023-01-20T07:36:53.393Z,101132.34
2023-01-20T07:39:20.436Z,101134.31
2023-01-20T07:41:50.775Z,101139.66
2023-01-20T07:44:17.522Z,101145.66
2023-01-20T07:46:44.255Z,101143.72
2023-01-20T07:49:12.464Z,101142.22
2023-01-20T07:51:39.972Z,101154.59
2023-01-20T07:54:06.831Z,101147.63
2023-01-20T07:56:33.412Z,101162.34
2023-01-20T07:58:59.985Z,101160.66
2023-01-20T08:01:29.072Z,101158.66
2023-01-20T08:03:56.323Z,101159.84
2023-01-20T08:06:24.624Z,101159.72
2023-01-20T08:08:52.657Z,101174.63
2023-01-20T08:11:21.061Z,101165.09
2023-01-20T08:13:48.241Z,101170.34
2023-01-20T08:16:17.075Z,101168.66
2023-01-20T08:18:43.863Z,101178.91
2023-01-20T08:21:18.885Z,101173.78
2023-01-20T08:23:45.559Z,101177.41
2023-01-20T08:26:12.272Z,101187.91
2023-01-20T08:28:38.993Z,101178.34
2023-01-20T08:31:11.315Z,101192.41
2023-01-20T08:33:38.737Z,101192.03
2023-01-20T08:36:11.156Z,101188.75
2023-01-20T08:38:38.544Z,101199.28
2023-01-20T08:41:13.894Z,101195.81
2023-01-20T08:43:40.648Z,101209.31
2023-01-20T08:46:11.132Z,101200.13
2023-01-20T08:48:38.898Z,101206.47
2023-01-20T08:51:08.073Z,101213.53
2023-01-20T08:53:34.946Z,101205.69
2023-01-20T08:56:02.751Z,101219.75
2023-01-20T08:58:29.917Z,101216.25
2023-01-20T09:00:57.575Z,101217.19
2023-01-20T09:03:24.215Z,101213.53
2023-01-20T09:05:52.253Z,101221.47
2023-01-20T09:08:20.291Z,101230.13
2023-01-20T09:10:47.095Z,101244.38
2023-01-20T09:13:13.734Z,101247.09
2023-01-20T09:15:40.323Z,101248.88
2023-01-20T09:18:07.189Z,101251.00
2023-01-20T09:20:34.047Z,101244.84
2023-01-20T09:23:03.773Z,101255.50
2023-01-20T09:25:30.374Z,101250.31
2023-01-20T09:28:00.441Z,101264.56
2023-01-20T09:30:27.056Z,101271.47
2023-01-20T09:32:56.361Z,101270.59
2023-01-20T09:35:22.951Z,101274.06
2023-01-20T09:38:08.012Z,101275.16
2023-01-20T09:41:18.637Z,101279.50
2023-01-20T09:43:54.361Z,101285.47
2023-01-20T09:47:12.381Z,101284.72
2023-01-20T09:50:36.324Z,101286.34
2023-01-20T09:53:30.274Z,101286.59
2023-01-20T09:55:58.317Z,101289.25
2023-01-20T09:58:37.077Z,101296.94
2023-01-20T10:01:07.318Z,101298.66
2023-01-20T10:03:40.180Z,101305.84
2023-01-20T10:06:14.323Z,101307.50
2023-01-20T10:09:04.527Z,101311.19
2023-01-20T10:11:38.392Z,101309.50
2023-01-20T10:14:21.431Z,101307.78
2023-01-20T10:17:09.812Z,101318.91
2023-01-20T10:19:46.154Z,101313.63
2023-01-20T10:22:22.655Z,101322.31
2023-01-20T10:24:53.234Z,101318.44
2023-01-20T10:27:19.951Z,101311.41
2023-01-20T10:29:49.842Z,101318.78
2023-01-20T10:32:25.357Z,101319.66
2023-01-20T10:34:56.584Z,101321.59
2023-01-20T10:37:23.765Z,101322.28
2023-01-20T10:40:14.217Z,101317.00
2023-01-20T10:42:41.227Z,101320.50
2023-01-20T10:45:22.847Z,101313.63
2023-01-20T10:48:15.070Z,101321.59
2023-01-20T10:50:55.523Z,101327.72
2023-01-20T10:53:30.344Z,101323.59
2023-01-20T10:56:09.033Z,101332.84
2023-01-20T10:58:36.779Z,101331.81
2023-01-20T11:01:10.376Z,101336.13
2023-01-20T11:03:40.504Z,101345.47
2023-01-20T11:06:07.577Z,101336.72
2023-01-20T11:08:34.142Z,101338.50
2023-01-20T11:11:10.030Z,101342.88
2023-01-20T11:13:36.613Z,101341.56
2023-01-20T11:16:07.352Z,101335.44
2023-01-20T11:18:33.970Z,101335.59
2023-01-20T11:21:14.176Z,101320.56
2023-01-20T11:23:45.990Z,101342.66
2023-01-20T11:26:21.522Z,101337.53
2023-01-20T11:28:59.514Z,101343.59
2023-01-20T11:31:48.056Z,101348.16
2023-01-20T11:34:21.943Z,101348.25
2023-01-20T11:36:49.822Z,101345.69
2023-01-20T11:39:49.996Z,101346.53
2023-01-20T11:42:30.830Z,101348.38
2023-01-20T11:45:21.514Z,101345.75
2023-01-20T11:48:01.098Z,101344.00
2023-01-20T11:50:33.591Z,101351.78
2023-01-20T11:53:18.051Z,101348.34
2023-01-20T11:55:53.354Z,101350.13
2023-01-20T11:58:22.819Z,101348.38
2023-01-20T12:00:51.317Z,101354.56
2023-01-20T12:03:17.765Z,101346.63
2023-01-20T12:05:54.633Z,101350.13
2023-01-20T12:08:27.377Z,101351.03
2023-01-20T12:10:55.590Z,101350.50
2023-01-20T12:13:28.495Z,101357.03
2023-01-20T12:15:56.583Z,101357.00
2023-01-20T12:18:39.026Z,101364.94
2023-01-20T12:21:11.078Z,101368.50
2023-01-20T12:23:55.316Z,101371.94
2023-01-20T12:26:23.067Z,101376.28
2023-01-20T12:28:57.833Z,101371.56
2023-01-20T12:31:24.613Z,101387.94
2023-01-20T12:33:53.215Z,101392.28
2023-01-20T12:36:38.089Z,101397.81
2023-01-20T12:39:23.007Z,101402.66
2023-01-20T12:41:56.087Z,101399.31
2023-01-20T12:44:41.677Z,101409.03
2023-01-20T12:47:17.451Z,101412.34
2023-01-20T12:49:50.762Z,101416.56
2023-01-20T12:52:30.529Z,101416.19
2023-01-20T12:55:09.280Z,101421.13
2023-01-20T12:57:58.245Z,101423.06
2023-01-20T13:00:59.451Z,101431.94
2023-01-20T13:03:53.864Z,101432.41
2023-01-20T13:06:30.174Z,101434.78
2023-01-20T13:09:29.137Z,101440.59
2023-01-20T13:12:04.296Z,101443.25
2023-01-20T13:14:41.285Z,101448.63
2023-01-20T13:17:16.469Z,101447.78
2023-01-20T13:19:46.617Z,101446.72
2023-01-20T13:22:16.526Z,101453.06
2023-01-20T13:24:45.456Z,101452.22
2023-01-20T13:27:13.962Z,101453.09
2023-01-20T13:30:03.385Z,101457.50
2023-01-20T13:32:37.661Z,101462.81
2023-01-20T13:35:22.762Z,101461.91
2023-01-20T13:37:54.171Z,101468.03
2023-01-20T13:40:32.858Z,101468.69
2023-01-20T13:42:59.583Z,101472.22
2023-01-20T13:45:27.606Z,101474.94
2023-01-20T13:48:22.811Z,101472.22
2023-01-20T13:50:50.394Z,101481.91
2023-01-20T13:53:22.907Z,101480.13
2023-01-20T13:56:28.440Z,101489.59
2023-01-20T13:58:58.168Z,101485.91
2023-01-20T14:01:25.677Z,101490.38
2023-01-20T14:04:06.997Z,101485.41
2023-01-20T14:06:35.859Z,101483.59
2023-01-20T14:09:03.663Z,101486.78
2023-01-20T14:11:31.360Z,101492.94
2023-01-20T14:13:58.964Z,101488.94
2023-01-20T14:16:30.793Z,101496.97
2023-01-20T14:19:00.071Z,101493.44
2023-01-20T14:21:29.364Z,101505.84
2023-01-20T14:23:56.396Z,101506.72
2023-01-20T14:26:28.224Z,101510.13
2023-01-20T14:28:57.322Z,101501.38
2023-01-20T14:31:45.633Z,101508.34
2023-01-20T14:34:23.293Z,101510.16
2023-01-20T14:36:50.838Z,101521.41
2023-01-20T14:39:22.536Z,101518.03
2023-01-20T14:41:56.960Z,101518.97
2023-01-20T14:44:29.320Z,101525.09
2023-01-20T14:46:57.971Z,101528.63
2023-01-20T14:49:41.909Z,101533.00
2023-01-20T14:52:12.450Z,101540.72
2023-01-20T14:54:43.350Z,101539.94
2023-01-20T14:57:25.334Z,101544.28
2023-01-20T15:00:15.562Z,101551.16
2023-01-20T15:02:45.927Z,101549.56
2023-01-20T15:05:20.155Z,101562.69
2023-01-20T15:07:47.017Z,101561.66
2023-01-20T15:10:18.386Z,101567.81
2023-01-20T15:12:47.949Z,101568.75
2023-01-20T15:15:23.455Z,101571.38
2023-01-20T15:18:08.876Z,101576.72
2023-01-20T15:20:38.412Z,101579.34
2023-01-20T15:23:13.980Z,101585.50
2023-01-20T15:25:40.587Z,101584.59
2023-01-20T15:28:20.048Z,101581.00
2023-01-20T15:30:46.653Z,101602.94
2023-01-20T15:33:13.262Z,101601.16
2023-01-20T15:35:41.666Z,101604.63
2023-01-20T15:38:11.948Z,101602.75
2023-01-20T15:40:39.936Z,101611.50
2023-01-20T15:43:18.210Z,101611.44
2023-01-20T15:45:45.165Z,101614.81
2023-01-20T15:48:17.554Z,101622.63
2023-01-20T15:50:44.411Z,101622.66
2023-01-20T15:53:12.647Z,101630.50
2023-01-20T15:55:49.476Z,101644.53
2023-01-20T15:58:27.829Z,101646.19
2023-01-20T16:00:55.743Z,101649.63
2023-01-20T16:03:23.600Z,101652.25
2023-01-20T16:05:51.524Z,101662.78
2023-01-20T16:08:20.595Z,101661.00
2023-01-20T16:10:47.527Z,101660.84
2023-01-20T16:13:14.559Z,101673.91
2023-01-20T16:15:42.979Z,101670.34
2023-01-20T16:18:14.585Z,101681.59
2023-01-20T16:20:42.704Z,101680.72
2023-01-20T16:23:09.290Z,101678.09
2023-01-20T16:25:36.400Z,101689.41
2023-01-20T16:28:11.704Z,101694.56
2023-01-20T16:30:38.410Z,101695.28
2023-01-20T16:33:15.150Z,101704.06
2023-01-20T16:35:42.164Z,101703.16
2023-01-20T16:38:12.750Z,101708.41
2023-01-20T16:40:45.769Z,101708.31
2023-01-20T16:43:12.716Z,101711.03
2023-01-20T16:45:39.375Z,101706.69
2023-01-20T16:48:07.139Z,101715.38
2023-01-20T16:50:33.761Z,101713.38
2023-01-20T16:53:00.431Z,101723.78
2023-01-20T16:55:27.096Z,101721.91
2023-01-20T16:57:57.471Z,101722.81
2023-01-20T17:00:24.077Z,101730.72
2023-01-20T17:02:52.420Z,101733.34
2023-01-20T17:05:25.864Z,101736.69
2023-01-20T17:07:57.508Z,101740.31
2023-01-20T17:10:26.403Z,101744.59
2023-01-20T17:12:53.572Z,101755.84
2023-01-20T17:15:21.054Z,101750.47
2023-01-20T17:17:49.141Z,101760.19
2023-01-20T17:20:17.680Z,101761.91
2023-01-20T17:22:44.610Z,101752.31
2023-01-20T17:25:11.921Z,101757.69
2023-01-20T17:27:39.196Z,101768.88
2023-01-20T17:30:08.141Z,101776.78
2023-01-20T17:32:35.617Z,101774.81
2023-01-20T17:35:02.449Z,101782.91
2023-01-20T17:37:29.032Z,101787.81
2023-01-20T17:39:55.645Z,101782.53
2023-01-20T17:42:22.248Z,101790.41
2023-01-20T17:44:48.825Z,101789.47
2023-01-20T17:47:15.910Z,101796.63
2023-01-20T17:49:42.774Z,101798.44
2023-01-20T17:52:09.395Z,101796.56
2023-01-20T17:54:36.051Z,101801.97
2023-01-20T17:57:02.806Z,101806.31
2023-01-20T17:59:32.516Z,101810.38
2023-01-20T18:02:00.095Z,101810.53
2023-01-20T18:04:27.033Z,101809.72
2023-01-20T18:06:53.673Z,101802.66
2023-01-20T18:09:20.318Z,101821.91
2023-01-20T18:11:46.900Z,101818.03
2023-01-20T18:14:13.516Z,101816.38
2023-01-20T18:16:41.700Z,101833.19
2023-01-20T18:19:10.690Z,101828.81
2023-01-20T18:21:37.818Z,101834.06
2023-01-20T18:24:07.438Z,101830.63
2023-01-20T18:26:35.288Z,101841.72
2023-01-20T18:29:07.243Z,101836.16
2023-01-20T18:31:34.902Z,101837.09
2023-01-20T18:34:04.817Z,101843.31
2023-01-20T18:36:37.012Z,101847.75
2023-01-20T18:39:23.907Z,101854.81
2023-01-20T18:41:51.734Z,101856.47
2023-01-20T18:44:19.063Z,101856.44
2023-01-20T18:46:45.630Z,101857.34
2023-01-20T18:49:13.784Z,101854.63
2023-01-20T18:51:44.291Z,101864.22
2023-01-20T18:54:17.628Z,101861.81
2023-01-20T18:56:44.580Z,101867.72
2023-01-20T18:59:11.914Z,101875.78
2023-01-20T19:01:40.165Z,101870.63
2023-01-20T19:04:10.080Z,101880.44
2023-01-20T19:06:39.122Z,101885.75
2023-01-20T19:09:07.677Z,101888.56
2023-01-20T19:11:39.595Z,101885.84
2023-01-20T19:14:08.155Z,101885.16
2023-01-20T19:16:37.921Z,101891.31
2023-01-20T19:19:07.346Z,101895.81
2023-01-20T19:21:36.416Z,101893.13
2023-01-20T19:24:06.118Z,101894.28
2023-01-20T19:26:35.632Z,101898.78
2023-01-20T19:29:05.713Z,101910.31
2023-01-20T19:31:34.424Z,101906.84
2023-01-20T19:34:01.071Z,101918.19
2023-01-20T19:36:27.818Z,101915.63
2023-01-20T19:38:54.644Z,101918.28
2023-01-20T19:41:23.653Z,101921.78
2023-01-20T19:43:57.513Z,101930.59
2023-01-20T19:46:29.387Z,101926.59
2023-01-20T19:48:57.965Z,101937.38
2023-01-20T19:51:25.252Z,101930.44
2023-01-20T19:53:58.069Z,101940.03
2023-01-20T19:56:26.967Z,101949.63
2023-01-20T19:58:54.414Z,101947.00
2023-01-20T20:01:23.061Z,101936.44
2023-01-20T20:03:50.683Z,101939.97
2023-01-20T20:06:20.334Z,101950.63
2023-01-20T20:08:47.106Z,101950.63
2023-01-20T20:11:13.768Z,101949.31
2023-01-20T20:13:40.336Z,101965.16
2023-01-20T20:16:08.044Z,101963.97
2023-01-20T20:18:34.684Z,101971.88
2023-01-20T20:21:01.276Z,101961.38
2023-01-20T20:23:27.886Z,101970.53
2023-01-20T20:25:57.819Z,101963.25
2023-01-20T20:28:28.528Z,101971.81
2023-01-20T20:30:55.594Z,101962.91
2023-01-20T20:33:23.634Z,101969.38
2023-01-20T20:35:50.530Z,101973.97
2023-01-20T20:38:18.122Z,101974.56
2023-01-20T20:40:44.866Z,101975.63
2023-01-20T20:43:11.601Z,101975.34
2023-01-20T20:45:38.183Z,101985.44
2023-01-20T20:48:05.294Z,101982.03
2023-01-20T20:50:32.128Z,101981.78
2023-01-20T20:52:59.202Z,101985.31
2023-01-20T20:55:26.383Z,101994.97
2023-01-20T20:57:53.644Z,101996.28
2023-01-20T21:00:23.629Z,102006.25
2023-01-20T21:02:50.405Z,102008.53
2023-01-20T21:05:18.991Z,102012.81
2023-01-20T21:07:45.910Z,102008.38
2023-01-20T21:10:15.825Z,102013.94
2023-01-20T21:12:43.906Z,102015.38
2023-01-20T21:15:11.523Z,102014.31
2023-01-20T21:17:38.723Z,102020.59
2023-01-20T21:20:06.374Z,102018.66
2023-01-20T21:22:33.839Z,102023.03
2023-01-20T21:25:00.391Z,102014.88
2023-01-20T21:27:27.205Z,102025.78
2023-01-20T21:29:54.798Z,102026.69
2023-01-20T21:32:21.398Z,102029.78
2023-01-20T21:34:47.978Z,102021.94
2023-01-20T21:37:15.559Z,102021.41
2023-01-20T21:39:42.118Z,102032.16
2023-01-20T21:42:09.233Z,102037.28
2023-01-20T21:44:36.547Z,102029.28
2023-01-20T21:47:10.561Z,102041.22
2023-01-20T21:49:55.724Z,102038.94
2023-01-20T21:52:42.035Z,102053.91
2023-01-20T21:55:22.672Z,102063.25
2023-01-20T21:57:51.290Z,102071.06
2023-01-20T22:00:18.697Z,102057.25
2023-01-20T22:02:45.482Z,102066.16
2023-01-20T22:05:13.327Z,102066.56
2023-01-20T22:07:41.039Z,102072.59
2023-01-20T22:10:07.985Z,102072.59
2023-01-20T22:12:35.669Z,102071.09
2023-01-20T22:15:03.625Z,102083.09
2023-01-20T22:17:30.759Z,102082.75
2023-01-20T22:19:57.338Z,102083.97
2023-01-20T22:22:23.996Z,102080.19
2023-01-20T22:24:50.949Z,102084.28
2023-01-20T22:27:17.612Z,102085.75
2023-01-20T22:29:44.175Z,102088.78
2023-01-20T22:32:10.807Z,102096.03
2023-01-20T22:34:37.388Z,102091.91
2023-01-20T22:37:04.203Z,102100.72
2023-01-20T22:39:30.902Z,102107.13
2023-01-20T22:41:57.464Z,102100.91
2023-01-20T22:44:24.070Z,102110.63
2023-01-20T22:46:50.704Z,102116.81
2023-01-20T22:49:17.356Z,102123.84
2023-01-20T22:51:44.447Z,102121.06
2023-01-20T22:54:11.364Z,102125.34
2023-01-20T22:56:39.157Z,102127.69
2023-01-20T22:59:06.191Z,102120.41
2023-01-20T23:01:35.380Z,102137.25
2023-01-20T23:04:04.189Z,102141.00
2023-01-20T23:06:36.299Z,102144.31
2023-01-20T23:09:06.838Z,102131.22
2023-01-20T23:11:34.092Z,102139.03
2023-01-20T23:14:00.672Z,102138.84
2023-01-20T23:16:27.407Z,102140.78
2023-01-20T23:18:53.993Z,102134.66
2023-01-20T23:21:20.994Z,102137.41
2023-01-20T23:23:54.881Z,102137.09
2023-01-20T23:26:23.661Z,102142.78
2023-01-20T23:28:50.679Z,102138.63
2023-01-20T23:31:17.741Z,102151.69
2023-01-20T23:33:44.934Z,102152.56
2023-01-20T23:36:19.899Z,102144.44
2023-01-20T23:38:46.652Z,102152.97
2023-01-20T23:41:13.855Z,102147.72
2023-01-20T23:43:41.108Z,102152.75
2023-01-20T23:46:08.194Z,102142.09
2023-01-20T23:48:35.255Z,102148.88
2023-01-20T23:51:02.734Z,102151.78
2023-01-20T23:53:31.346Z,102155.19
2023-01-20T23:56:02.226Z,102151.88
2023-01-20T23:58:28.855Z,102157.91
